Time,TemperatureF,DewpointF,PressureIn,WindDirection,WindDirectionDegrees,WindSpeedMPH,WindSpeedGustMPH,Humidity,HourlyPrecipIn,Conditions,Clouds,dailyrainin,SoftwareType,DateUTC
2013-01-18 00:00:00,34.0,28.0,29.99,WSW,254,1.0,3.0,80,0.00,,,0.00,,2013-01-18 05:00:00,
2013-01-18 00:22:00,34.0,28.0,29.99,WSW,254,1.0,3.0,80,0.00,,,0.00,,2013-01-18 05:22:00,
2013-01-18 00:33:00,34.0,28.0,29.99,WSW,254,1.0,3.0,80,0.00,,,0.00,,2013-01-18 05:33:00,
2013-01-18 00:43:00,34.0,28.0,29.99,WSW,254,1.0,3.0,80,0.00,,,0.00,,2013-01-18 05:43:00,
2013-01-18 00:53:00,34.0,28.0,29.99,WSW,254,1.0,3.0,80,0.00,,,0.00,,2013-01-18 05:53:00,
2013-01-18 01:00:00,34.0,28.0,29.99,West,271,2.0,6.0,79,0.00,,,0.00,,2013-01-18 06:00:00,
2013-01-18 01:22:00,34.0,28.0,29.99,West,271,2.0,6.0,79,0.00,,,0.00,,2013-01-18 06:22:00,
2013-01-18 01:33:00,34.0,28.0,29.99,West,271,2.0,6.0,79,0.00,,,0.00,,2013-01-18 06:33:00,
2013-01-18 01:43:00,34.0,28.0,29.99,West,271,2.0,6.0,79,0.00,,,0.00,,2013-01-18 06:43:00,
2013-01-18 01:53:00,34.0,28.0,29.99,West,271,2.0,6.0,79,0.00,,,0.00,,2013-01-18 06:53:00,
2013-01-18 02:00:00,34.0,28.0,30.03,West,269,0.0,3.0,79,0.00,,,0.00,,2013-01-18 07:00:00,
2013-01-18 02:22:00,34.0,28.0,30.03,West,269,0.0,3.0,79,0.00,,,0.00,,2013-01-18 07:22:00,
2013-01-18 02:33:00,34.0,28.0,30.03,West,269,0.0,3.0,79,0.00,,,0.00,,2013-01-18 07:33:00,
2013-01-18 02:42:00,34.0,28.0,30.03,West,269,0.0,3.0,79,0.00,,,0.00,,2013-01-18 07:42:00,
2013-01-18 02:52:00,34.0,28.0,30.03,West,269,0.0,3.0,79,0.00,,,0.00,,2013-01-18 07:52:00,
2013-01-18 03:00:00,33.0,27.0,30.04,West,279,2.0,6.0,79,0.00,,,0.00,,2013-01-18 08:00:00,
2013-01-18 03:22:00,33.0,27.0,30.04,West,279,2.0,6.0,79,0.00,,,0.00,,2013-01-18 08:22:00,
2013-01-18 03:33:00,33.0,27.0,30.04,West,279,2.0,6.0,79,0.00,,,0.00,,2013-01-18 08:33:00,
2013-01-18 03:43:00,33.0,27.0,30.04,West,279,2.0,6.0,79,0.00,,,0.00,,2013-01-18 08:43:00,
2013-01-18 03:53:00,33.0,27.0,30.04,West,279,2.0,6.0,79,0.00,,,0.00,,2013-01-18 08:53:00,
2013-01-18 04:00:00,33.0,26.0,30.07,West,275,4.0,11.0,76,0.00,,,0.00,,2013-01-18 09:00:00,
2013-01-18 04:22:00,33.0,26.0,30.07,West,275,4.0,11.0,76,0.00,,,0.00,,2013-01-18 09:22:00,
2013-01-18 04:33:00,33.0,26.0,30.07,West,275,4.0,11.0,76,0.00,,,0.00,,2013-01-18 09:33:00,
2013-01-18 04:43:00,33.0,26.0,30.07,West,275,4.0,11.0,76,0.00,,,0.00,,2013-01-18 09:43:00,
2013-01-18 04:53:00,33.0,26.0,30.07,West,275,4.0,11.0,76,0.00,,,0.00,,2013-01-18 09:53:00,
2013-01-18 05:00:00,31.0,25.0,30.10,NW,309,6.0,20.0,78,0.00,,,0.00,,2013-01-18 10:00:00,
2013-01-18 05:22:00,31.0,25.0,30.10,NW,309,6.0,20.0,78,0.00,,,0.00,,2013-01-18 10:22:00,
2013-01-18 05:33:00,31.0,25.0,30.10,NW,309,6.0,20.0,78,0.00,,,0.00,,2013-01-18 10:33:00,
2013-01-18 05:43:00,31.0,25.0,30.10,NW,309,6.0,20.0,78,0.00,,,0.00,,2013-01-18 10:43:00,
2013-01-18 05:53:00,31.0,25.0,30.10,NW,309,6.0,20.0,78,0.00,,,0.00,,2013-01-18 10:53:00,
2013-01-18 06:23:00,30.0,24.0,30.16,WNW,298,3.0,17.0,77,0.00,,,0.00,,2013-01-18 11:23:00,
2013-01-18 06:33:00,30.0,24.0,30.16,WNW,298,3.0,17.0,77,0.00,,,0.00,,2013-01-18 11:33:00,
2013-01-18 06:42:00,30.0,24.0,30.16,WNW,298,3.0,17.0,77,0.00,,,0.00,,2013-01-18 11:42:00,
2013-01-18 06:52:00,30.0,24.0,30.16,WNW,298,3.0,17.0,77,0.00,,,0.00,,2013-01-18 11:52:00,
2013-01-18 07:23:00,26.0,19.0,30.22,NNW,328,2.0,11.0,75,0.00,,,0.00,,2013-01-18 12:23:00,
2013-01-18 07:33:00,26.0,19.0,30.22,NNW,328,2.0,11.0,75,0.00,,,0.00,,2013-01-18 12:33:00,
2013-01-18 07:43:00,26.0,19.0,30.22,NNW,328,2.0,11.0,75,0.00,,,0.00,,2013-01-18 12:43:00,
2013-01-18 07:52:00,26.0,19.0,30.22,NNW,328,2.0,11.0,75,0.00,,,0.00,,2013-01-18 12:52:00,
2013-01-18 08:23:00,26.0,18.0,30.28,NNW,334,2.0,13.0,70,0.00,,,0.00,,2013-01-18 13:23:00,
2013-01-18 08:33:00,26.0,18.0,30.28,NNW,334,2.0,13.0,70,0.00,,,0.00,,2013-01-18 13:33:00,
2013-01-18 08:43:00,26.0,18.0,30.28,NNW,334,2.0,13.0,70,0.00,,,0.00,,2013-01-18 13:43:00,
2013-01-18 08:53:00,26.0,18.0,30.28,NNW,334,2.0,13.0,70,0.00,,,0.00,,2013-01-18 13:53:00,